Time;durP1;ratioP1;P1;durP2;ratioP2;P2;SDS_P1;SDS_P2;PMS_P1;PMS_P2;Temp;Humidity;BMP_temperature;BMP_pressure;BME280_temperature;BME280_humidity;BME280_pressure;Samples;Min_cycle;Max_cycle;Signal;HPM_P1;HPM_P2
2023/10/12 00:00:28;;;;;;;7.20;5.30;;;20.30;1.00;;;;;;5108444;27;20537;-75
2023/10/12 00:02:57;;;;;;;6.60;5.03;;;20.30;1.00;;;;;;5108093;27;20451;-76
2023/10/12 00:05:27;;;;;;;7.07;5.70;;;20.30;1.00;;;;;;5097334;27;20955;-73
2023/10/12 00:07:56;;;;;;;6.93;5.03;;;20.40;1.00;;;;;;5104924;27;20505;-75
2023/10/12 00:10:23;;;;;;;9.73;5.67;;;20.40;1.00;;;;;;5103336;27;20452;-76
2023/10/12 00:12:54;;;;;;;9.13;5.23;;;20.30;1.00;;;;;;5104707;27;21034;-73
2023/10/12 00:15:29;;;;;;;11.37;5.80;;;20.30;1.00;;;;;;5105188;27;20460;-76
2023/10/12 00:17:57;;;;;;;8.70;4.80;;;20.40;1.00;;;;;;5108268;27;20721;-75
2023/10/12 00:20:32;;;;;;;10.03;4.70;;;20.50;1.00;;;;;;5105665;27;20455;-76
2023/10/12 00:23:01;;;;;;;12.10;5.80;;;20.50;1.00;;;;;;5097468;27;20494;-76
2023/10/12 00:25:33;;;;;;;7.23;5.40;;;20.50;1.00;;;;;;5107192;27;20569;-75
2023/10/12 00:28:01;;;;;;;11.27;5.50;;;20.50;1.00;;;;;;5098168;27;20466;-76
2023/10/12 00:30:31;;;;;;;9.83;4.73;;;20.60;1.00;;;;;;5107342;27;20490;-76
2023/10/12 00:32:58;;;;;;;10.33;5.33;;;20.60;1.00;;;;;;5105453;27;20453;-78
2023/10/12 00:35:25;;;;;;;9.17;4.90;;;20.70;1.00;;;;;;5104792;27;20464;-75
2023/10/12 00:37:54;;;;;;;11.30;4.67;;;20.70;1.00;;;;;;5106631;27;20458;-76
2023/10/12 00:40:26;;;;;;;10.30;5.47;;;20.80;1.00;;;;;;5106235;27;20422;-76
2023/10/12 00:42:53;;;;;;;9.33;4.67;;;20.80;1.00;;;;;;5107112;27;20456;-76
2023/10/12 00:45:28;;;;;;;10.30;5.40;;;20.90;1.00;;;;;;5105255;27;20455;-76
2023/10/12 00:48:04;;;;;;;14.63;5.27;;;20.90;1.00;;;;;;5100174;27;20468;-77
2023/10/12 00:50:31;;;;;;;8.20;5.23;;;21.00;1.00;;;;;;5103355;27;20459;-77
2023/10/12 00:53:03;;;;;;;8.40;4.50;;;20.90;1.00;;;;;;5105158;27;20457;-77
2023/10/12 00:55:36;;;;;;;10.50;5.03;;;21.00;1.00;;;;;;5105939;27;20479;-76
2023/10/12 00:58:05;;;;;;;9.50;4.27;;;21.00;1.00;;;;;;5107756;27;20458;-78
2023/10/12 01:00:44;;;;;;;5.70;4.50;;;21.00;1.00;;;;;;5103167;27;20981;-75
2023/10/12 01:06:15;;;;;;;8.37;4.90;;;21.00;1.00;;;;;;5109495;27;21139;-72
2023/10/12 01:08:43;;;;;;;8.33;4.83;;;21.00;1.00;;;;;;5102742;27;20456;-77
2023/10/12 01:11:18;;;;;;;10.50;4.27;;;21.00;1.00;;;;;;5107922;27;20549;-76
2023/10/12 01:13:48;;;;;;;7.77;4.73;;;21.00;1.00;;;;;;5104577;27;20465;-73
2023/10/12 01:16:21;;;;;;;12.93;5.20;;;20.90;1.00;;;;;;5106107;27;20481;-75
2023/10/12 01:18:57;;;;;;;7.43;5.30;;;20.80;1.00;;;;;;5105888;27;20844;-77
2023/10/12 01:21:23;;;;;;;10.03;5.07;;;20.80;1.00;;;;;;5107182;27;20891;-77
2023/10/12 01:23:53;;;;;;;8.73;5.23;;;20.80;1.00;;;;;;5104042;27;20541;-75
2023/10/12 01:26:21;;;;;;;7.00;4.50;;;20.80;1.00;;;;;;5107166;27;20461;-76
2023/10/12 01:28:49;;;;;;;6.63;4.80;;;20.80;1.00;;;;;;5109770;27;20479;-75
2023/10/12 01:31:27;;;;;;;11.47;5.00;;;20.80;1.00;;;;;;5109727;27;20451;-75
2023/10/12 01:33:55;;;;;;;8.40;4.73;;;20.70;1.00;;;;;;5110696;27;20528;-76
2023/10/12 01:36:23;;;;;;;8.57;5.07;;;20.70;1.00;;;;;;5109178;27;20461;-76
2023/10/12 01:38:57;;;;;;;8.57;4.43;;;20.70;1.00;;;;;;5111292;27;20940;-75
2023/10/12 01:41:27;;;;;;;8.57;5.47;;;20.70;1.00;;;;;;5110299;27;20480;-73
2023/10/12 01:43:54;;;;;;;8.37;5.80;;;20.70;1.00;;;;;;5109017;27;20483;-75
2023/10/12 01:46:23;;;;;;;9.70;5.40;;;20.70;1.00;;;;;;5107723;27;20523;-76
2023/10/12 01:48:50;;;;;;;6.07;5.10;;;20.70;1.00;;;;;;5110228;27;20473;-75
2023/10/12 01:51:24;;;;;;;6.90;4.70;;;20.60;1.00;;;;;;5112038;27;20457;-75
2023/10/12 01:53:54;;;;;;;9.07;5.03;;;20.60;1.00;;;;;;5112623;27;20478;-75
2023/10/12 01:56:26;;;;;;;7.40;5.40;;;20.60;1.00;;;;;;5112377;27;20501;-76
2023/10/12 01:58:54;;;;;;;10.47;5.07;;;20.50;1.00;;;;;;5101242;27;20621;-74
2023/10/12 02:01:24;;;;;;;7.87;4.67;;;20.50;1.00;;;;;;5109843;27;20509;-75
2023/10/12 02:03:55;;;;;;;8.03;5.20;;;20.50;1.00;;;;;;5106460;27;20546;-71
2023/10/12 02:06:28;;;;;;;7.53;4.80;;;20.50;1.00;;;;;;5111175;27;20501;-72
2023/10/12 02:09:02;;;;;;;7.50;5.63;;;20.50;1.00;;;;;;5109238;27;20887;-72
2023/10/12 02:11:42;;;;;;;7.87;5.33;;;20.50;1.00;;;;;;5108654;27;20456;-72
2023/10/12 02:14:11;;;;;;;8.57;4.90;;;20.50;1.00;;;;;;5108273;27;20875;-72
2023/10/12 02:16:38;;;;;;;9.83;5.40;;;20.40;1.00;;;;;;5108347;27;20484;-72
2023/10/12 02:19:06;;;;;;;8.93;5.33;;;20.40;1.00;;;;;;5104417;27;20470;-72
2023/10/12 02:21:37;;;;;;;6.20;4.80;;;20.30;1.00;;;;;;5108182;27;20462;-73
2023/10/12 02:24:13;;;;;;;9.27;4.90;;;20.40;1.00;;;;;;5103427;27;20556;-71
2023/10/12 02:26:52;;;;;;;10.80;4.90;;;20.30;1.00;;;;;;5110212;27;20468;-71
2023/10/12 02:29:20;;;;;;;9.00;4.50;;;20.30;1.00;;;;;;5106590;27;20490;-71
2023/10/12 02:31:58;;;;;;;7.67;4.67;;;20.30;1.00;;;;;;5106524;27;20459;-72
2023/10/12 02:34:26;;;;;;;8.10;4.67;;;20.30;1.00;;;;;;5109299;27;20492;-71
2023/10/12 02:37:16;;;;;;;12.23;5.77;;;20.20;1.00;;;;;;5109613;27;20837;-72
2023/10/12 02:39:46;;;;;;;9.63;5.60;;;20.20;1.00;;;;;;5105915;27;20447;-72
2023/10/12 02:42:18;;;;;;;11.30;5.30;;;20.20;1.00;;;;;;5106850;27;20473;-72
2023/10/12 02:44:57;;;;;;;9.70;5.20;;;20.10;1.00;;;;;;5104773;27;20580;-73
2023/10/12 02:47:30;;;;;;;7.70;5.40;;;20.10;1.00;;;;;;5104756;27;20977;-72
2023/10/12 02:50:04;;;;;;;9.23;5.30;;;20.10;1.00;;;;;;5105541;27;20553;-72
2023/10/12 02:52:32;;;;;;;8.40;5.30;;;20.00;1.00;;;;;;5102460;27;21052;-71
2023/10/12 02:55:19;;;;;;;9.63;5.50;;;20.00;1.00;;;;;;5105450;27;20481;-72
2023/10/12 02:57:54;;;;;;;9.27;6.33;;;19.90;1.00;;;;;;5107007;27;20550;-71
2023/10/12 03:00:23;;;;;;;10.77;4.87;;;19.90;1.00;;;;;;5105800;27;20537;-71
2023/10/12 03:02:53;;;;;;;5.97;5.00;;;19.80;1.00;;;;;;5108564;27;20487;-71
2023/10/12 03:05:32;;;;;;;6.50;5.80;;;19.70;1.00;;;;;;5102755;27;20542;-71
2023/10/12 03:08:06;;;;;;;10.10;6.03;;;19.70;1.00;;;;;;5104317;27;20465;-71
2023/10/12 03:10:34;;;;;;;16.07;5.73;;;19.60;1.00;;;;;;5106508;27;20545;-72
2023/10/12 03:13:04;;;;;;;14.37;5.50;;;19.60;1.00;;;;;;5104381;27;20465;-73
2023/10/12 03:15:40;;;;;;;9.03;5.33;;;19.50;1.00;;;;;;5107577;27;20561;-72
2023/10/12 03:18:11;;;;;;;10.23;6.03;;;19.30;1.00;;;;;;5105510;27;20476;-72
2023/10/12 03:20:39;;;;;;;10.00;5.47;;;19.20;1.00;;;;;;5104935;27;20992;-72
2023/10/12 03:23:13;;;;;;;16.53;5.40;;;19.10;1.00;;;;;;5106068;27;20913;-72
2023/10/12 03:25:46;;;;;;;6.83;4.77;;;19.10;1.00;;;;;;5107272;27;20456;-71
2023/10/12 03:28:29;;;;;;;11.23;5.70;;;19.00;1.00;;;;;;5101081;27;20480;-71
2023/10/12 03:31:11;;;;;;;10.83;6.23;;;18.90;1.00;;;;;;5105437;27;20466;-72
2023/10/12 03:33:39;;;;;;;9.33;7.00;;;18.90;1.00;;;;;;5108939;27;20471;-72
2023/10/12 03:36:22;;;;;;;9.33;6.03;;;18.80;1.00;;;;;;5107816;27;21015;-73
2023/10/12 03:39:06;;;;;;;10.83;7.60;;;18.70;1.00;;;;;;5106460;27;21479;-72
2023/10/12 03:41:46;;;;;;;11.50;6.23;;;18.60;1.00;;;;;;5106321;27;20508;-72
2023/10/12 03:44:18;;;;;;;12.63;6.97;;;18.50;1.00;;;;;;5105734;27;20466;-72
2023/10/12 03:46:47;;;;;;;10.50;6.87;;;18.40;1.00;;;;;;5103065;27;20971;-72
2023/10/12 03:49:24;;;;;;;9.30;6.73;;;18.40;1.00;;;;;;5104266;27;20513;-72
2023/10/12 03:51:57;;;;;;;15.50;6.57;;;18.30;1.00;;;;;;5107886;27;20485;-73
2023/10/12 03:54:29;;;;;;;12.30;7.40;;;18.30;1.00;;;;;;5100288;27;20498;-72
2023/10/12 03:57:06;;;;;;;10.80;7.57;;;18.20;1.00;;;;;;5106386;27;20453;-73
2023/10/12 03:59:44;;;;;;;13.50;6.63;;;18.10;1.00;;;;;;5100333;27;20518;-72
2023/10/12 04:02:15;;;;;;;14.43;7.90;;;18.00;1.00;;;;;;5106664;27;20463;-71
2023/10/12 04:04:52;;;;;;;13.70;7.67;;;17.90;1.00;;;;;;5101052;27;22420;-73
2023/10/12 04:07:37;;;;;;;13.33;7.40;;;17.70;1.00;;;;;;5102561;27;20452;-72
2023/10/12 04:10:14;;;;;;;9.67;6.50;;;17.60;1.00;;;;;;5102087;27;20474;-73
2023/10/12 04:12:53;;;;;;;8.93;7.80;;;17.40;1.00;;;;;;5103085;27;20670;-71
2023/10/12 04:15:27;;;;;;;13.83;6.83;;;17.20;1.00;;;;;;5098886;27;20480;-72
2023/10/12 04:17:59;;;;;;;10.23;7.20;;;17.10;1.00;;;;;;5104391;27;20459;-72
2023/10/12 04:20:27;;;;;;;7.80;6.43;;;17.10;1.00;;;;;;5104293;27;20470;-72
2023/10/12 04:25:49;;;;;;;13.17;7.53;;;17.00;1.00;;;;;;5102864;27;20482;-76
2023/10/12 04:28:22;;;;;;;13.80;8.30;;;17.00;1.00;;;;;;5103213;27;20470;-75
2023/10/12 04:33:55;;;;;;;10.07;7.20;;;16.80;1.00;;;;;;5105857;27;20506;-74
2023/10/12 04:36:33;;;;;;;11.53;7.60;;;16.70;1.00;;;;;;5109214;27;20464;-76
2023/10/12 04:39:16;;;;;;;7.47;5.93;;;16.60;1.00;;;;;;5108249;27;20462;-75
2023/10/12 04:41:53;;;;;;;8.30;4.70;;;16.50;1.00;;;;;;5113153;27;20530;-76
2023/10/12 04:44:40;;;;;;;7.97;6.00;;;16.40;1.00;;;;;;5107612;27;20441;-76
2023/10/12 04:47:07;;;;;;;8.20;5.53;;;16.30;1.00;;;;;;5109981;27;20952;-72
2023/10/12 04:49:55;;;;;;;7.00;5.13;;;16.20;1.00;;;;;;5108319;27;20649;-75
2023/10/12 04:52:32;;;;;;;7.47;6.10;;;16.10;1.00;;;;;;5108839;27;20425;-75
2023/10/12 04:57:44;;;;;;;6.53;5.77;;;16.10;1.00;;;;;;5094606;27;20464;-73
2023/10/12 05:00:24;;;;;;;10.27;6.27;;;16.10;1.00;;;;;;5105096;27;20433;-77
2023/10/12 05:03:22;;;;;;;8.30;5.50;;;16.10;1.00;;;;;;5107054;27;20475;-76
2023/10/12 05:05:56;;;;;;;7.10;5.27;;;16.10;1.00;;;;;;5124260;27;20449;-71
2023/10/12 05:08:24;;;;;;;5.80;5.10;;;16.00;1.00;;;;;;5107534;27;20454;-75
2023/10/12 05:10:52;;;;;;;7.10;5.20;;;16.00;1.00;;;;;;5106873;27;20475;-75
2023/10/12 05:13:21;;;;;;;9.17;4.80;;;16.00;1.00;;;;;;5105794;27;20516;-72
2023/10/12 05:15:58;;;;;;;8.77;5.00;;;15.90;1.00;;;;;;5109771;27;20465;-76
2023/10/12 05:18:27;;;;;;;6.73;4.80;;;15.90;1.00;;;;;;5103149;27;20452;-74
2023/10/12 05:20:54;;;;;;;7.33;6.30;;;15.80;1.00;;;;;;5102035;27;20557;-76
2023/10/12 05:23:21;;;;;;;10.03;5.10;;;15.70;1.00;;;;;;5107581;27;22932;-75
2023/10/12 05:26:07;;;;;;;7.30;4.43;;;15.60;1.00;;;;;;5108842;27;20565;-76
2023/10/12 05:28:38;;;;;;;7.20;5.13;;;15.60;1.00;;;;;;5105029;27;20858;-74
2023/10/12 05:31:13;;;;;;;7.97;5.27;;;15.60;1.00;;;;;;5105434;27;21152;-73
2023/10/12 05:34:00;;;;;;;7.83;5.00;;;15.70;1.00;;;;;;5106858;27;21246;-71
2023/10/12 05:36:31;;;;;;;7.37;4.90;;;15.60;1.00;;;;;;5109470;27;20987;-73
2023/10/12 05:39:12;;;;;;;8.57;5.87;;;15.60;1.00;;;;;;5108797;27;20489;-72
2023/10/12 05:41:40;;;;;;;7.77;6.97;;;15.60;1.00;;;;;;5106275;27;20465;-72
2023/10/12 05:44:13;;;;;;;8.03;6.70;;;15.70;1.00;;;;;;5109970;27;20564;-73
2023/10/12 05:46:44;;;;;;;10.93;6.23;;;15.70;1.00;;;;;;5100758;27;20686;-73
2023/10/12 05:49:13;;;;;;;6.93;5.80;;;15.80;1.00;;;;;;5106135;27;20461;-73
2023/10/12 05:51:43;;;;;;;6.77;5.10;;;15.80;1.00;;;;;;5110791;27;20465;-75
2023/10/12 05:54:18;;;;;;;11.40;6.80;;;15.80;1.00;;;;;;5105507;27;20496;-77
2023/10/12 05:56:45;;;;;;;11.17;9.33;;;15.70;1.00;;;;;;5108331;27;20460;-73
2023/10/12 05:59:14;;;;;;;8.10;6.90;;;15.70;1.00;;;;;;5104791;27;20537;-75
2023/10/12 06:01:45;;;;;;;8.10;6.80;;;15.60;1.00;;;;;;5108911;27;20442;-74
2023/10/12 06:04:14;;;;;;;10.43;7.80;;;15.70;1.00;;;;;;5105198;27;20973;-72
2023/10/12 06:06:42;;;;;;;9.87;7.80;;;15.70;1.00;;;;;;5105398;27;20449;-71
2023/10/12 06:09:12;;;;;;;12.53;8.67;;;15.60;1.00;;;;;;5102169;27;20570;-72
2023/10/12 06:11:41;;;;;;;11.70;8.00;;;15.70;1.00;;;;;;5108679;27;20477;-73
2023/10/12 06:14:09;;;;;;;10.83;8.30;;;15.70;1.00;;;;;;5103639;27;20476;-73
2023/10/12 06:16:40;;;;;;;9.57;8.30;;;15.60;1.00;;;;;;5104343;27;20473;-73
2023/10/12 06:19:21;;;;;;;11.27;8.40;;;15.70;1.00;;;;;;5105682;27;20512;-74
2023/10/12 06:21:51;;;;;;;14.23;8.73;;;15.70;1.00;;;;;;5109905;27;20480;-72
2023/10/12 06:24:21;;;;;;;12.77;8.10;;;15.70;1.00;;;;;;5104043;27;20452;-74
2023/10/12 06:26:48;;;;;;;8.73;7.83;;;15.70;1.00;;;;;;5101227;27;20489;-72
2023/10/12 06:29:25;;;;;;;15.33;8.93;;;15.80;1.00;;;;;;5106151;27;20461;-75
2023/10/12 06:31:54;;;;;;;10.47;9.10;;;15.80;1.00;;;;;;5105485;27;20543;-73
2023/10/12 06:34:23;;;;;;;14.93;10.30;;;15.80;1.00;;;;;;5104638;27;20453;-73
2023/10/12 06:36:57;;;;;;;17.30;9.23;;;15.90;1.00;;;;;;5105626;27;20468;-74
2023/10/12 06:42:26;;;;;;;15.43;11.37;;;15.90;1.00;;;;;;5105919;27;20458;-73
2023/10/12 06:44:54;;;;;;;13.77;10.80;;;16.00;1.00;;;;;;5095256;27;20563;-73
2023/10/12 06:47:41;;;;;;;17.30;10.73;;;16.00;1.00;;;;;;5108521;27;20431;-71
2023/10/12 06:50:15;;;;;;;17.33;11.30;;;16.00;1.00;;;;;;5103523;27;20558;-73
2023/10/12 06:52:43;;;;;;;21.50;13.80;;;16.00;1.00;;;;;;5102250;27;20514;-72
2023/10/12 06:55:21;;;;;;;14.40;12.00;;;16.00;1.00;;;;;;5104579;27;20631;-72
2023/10/12 06:57:54;;;;;;;14.80;12.80;;;16.10;1.00;;;;;;5107459;27;20864;-72
2023/10/12 07:00:35;;;;;;;17.93;11.30;;;16.10;1.00;;;;;;5102708;27;20454;-71
2023/10/12 07:03:08;;;;;;;16.37;11.83;;;16.10;1.00;;;;;;5108551;27;20457;-72
2023/10/12 07:05:38;;;;;;;17.13;12.53;;;16.10;1.00;;;;;;5106286;27;20502;-72
2023/10/12 07:08:15;;;;;;;13.77;11.43;;;16.00;1.00;;;;;;5108154;27;20460;-72
2023/10/12 07:10:52;;;;;;;16.10;12.40;;;16.00;1.00;;;;;;5106976;27;20449;-72
2023/10/12 07:13:25;;;;;;;15.20;11.53;;;16.00;1.00;;;;;;5099936;27;20773;-71
2023/10/12 07:15:52;;;;;;;16.07;11.60;;;16.00;1.00;;;;;;5105333;27;20548;-71
2023/10/12 07:18:22;;;;;;;17.47;12.03;;;16.00;1.00;;;;;;5102860;27;21132;-71
2023/10/12 07:20:50;;;;;;;18.93;11.43;;;16.00;1.00;;;;;;5103124;27;21100;-70
2023/10/12 07:23:19;;;;;;;12.80;11.50;;;16.00;1.00;;;;;;5105205;27;20456;-71
2023/10/12 07:25:51;;;;;;;15.63;12.03;;;16.00;1.00;;;;;;5096706;27;21103;-71
2023/10/12 07:28:26;;;;;;;13.97;12.00;;;15.90;1.00;;;;;;5104808;27;20440;-70
2023/10/12 07:33:59;;;;;;;12.67;11.40;;;16.00;1.00;;;;;;5061102;27;20492;-72
2023/10/12 07:39:19;;;;;;;14.23;12.20;;;15.90;1.00;;;;;;5101271;27;20446;-71
2023/10/12 07:41:54;;;;;;;15.10;12.27;;;15.90;1.00;;;;;;5106692;27;20422;-70
2023/10/12 07:44:22;;;;;;;15.17;12.27;;;15.90;1.00;;;;;;5106315;27;21403;-69
2023/10/12 07:46:49;;;;;;;14.37;11.40;;;15.90;1.00;;;;;;5106862;27;20568;-70
2023/10/12 07:49:27;;;;;;;13.83;11.37;;;15.90;1.00;;;;;;5101135;27;20461;-72
2023/10/12 07:51:59;;;;;;;11.70;10.40;;;15.90;1.00;;;;;;5099760;27;20947;-70
2023/10/12 07:54:46;;;;;;;11.10;10.00;;;16.00;1.00;;;;;;5106637;27;20469;-69
2023/10/12 07:57:13;;;;;;;12.33;10.27;;;15.90;1.00;;;;;;5100663;27;20474;-69
2023/10/12 07:59:49;;;;;;;13.50;11.60;;;15.90;1.00;;;;;;5105066;27;20454;-68
2023/10/12 08:02:15;;;;;;;9.97;7.30;;;15.90;1.00;;;;;;5103002;27;20484;-68
2023/10/12 08:04:57;;;;;;;5.70;3.77;;;15.90;1.00;;;;;;5103880;27;20511;-68
2023/10/12 08:07:26;;;;;;;4.30;3.90;;;15.70;1.00;;;;;;5104810;27;20537;-71
2023/10/12 08:10:08;;;;;;;4.93;3.63;;;15.40;1.00;;;;;;5104087;27;20461;-68
2023/10/12 08:12:36;;;;;;;3.20;2.40;;;15.20;1.00;;;;;;5105039;27;20460;-74
2023/10/12 08:15:09;;;;;;;4.83;2.20;;;15.10;1.00;;;;;;5108102;27;20802;-69
2023/10/12 08:17:39;;;;;;;4.90;2.70;;;14.90;1.00;;;;;;5096876;27;20476;-72
2023/10/12 08:23:10;;;;;;;3.17;1.93;;;14.60;1.00;;;;;;5036003;28;20519;-69
2023/10/12 08:25:38;;;;;;;5.97;2.40;;;14.40;1.00;;;;;;5036470;28;20494;-69
2023/10/12 08:28:18;;;;;;;5.37;2.93;;;14.30;1.00;;;;;;5069683;27;20501;-69
2023/10/12 08:30:48;;;;;;;4.27;2.57;;;14.20;1.00;;;;;;5105622;27;20468;-69
2023/10/12 08:33:17;;;;;;;6.10;2.90;;;14.20;1.00;;;;;;5108750;27;20456;-69
2023/10/12 08:38:33;;;;;;;8.40;2.90;;;14.30;1.00;;;;;;5104503;27;20472;-72
2023/10/12 08:43:48;;;;;;;6.60;2.00;;;14.20;1.00;;;;;;5101237;27;20461;-67
2023/10/12 08:49:34;;;;;;;8.37;3.70;;;14.10;1.00;;;;;;5103892;27;20685;-69
2023/10/12 08:52:05;;;;;;;7.43;2.63;;;14.10;1.00;;;;;;5103583;27;20464;-69
2023/10/12 08:54:37;;;;;;;20.53;18.40;;;14.00;1.00;;;;;;5103558;27;20986;-69
2023/10/12 08:57:16;;;;;;;7.03;2.70;;;14.00;1.00;;;;;;5107010;27;20527;-67
2023/10/12 08:59:57;;;;;;;6.17;2.80;;;14.00;1.00;;;;;;5106564;27;20491;-69
2023/10/12 09:02:24;;;;;;;5.40;3.20;;;14.00;1.00;;;;;;5102630;27;20469;-68
2023/10/12 09:04:54;;;;;;;6.37;3.40;;;14.00;1.00;;;;;;5104053;27;20541;-70
2023/10/12 09:07:21;;;;;;;9.43;3.50;;;14.10;1.00;;;;;;5103056;27;20515;-69
2023/10/12 09:09:49;;;;;;;8.40;4.00;;;14.20;1.00;;;;;;5102820;27;20521;-68
2023/10/12 09:12:19;;;;;;;8.90;5.27;;;14.20;1.00;;;;;;5103049;27;20976;-72
2023/10/12 09:14:46;;;;;;;9.13;3.63;;;14.20;1.00;;;;;;5101060;27;20493;-68
2023/10/12 09:17:29;;;;;;;8.97;5.70;;;14.10;1.00;;;;;;5102838;27;20475;-72
2023/10/12 09:20:21;;;;;;;6.50;3.10;;;14.10;1.00;;;;;;5104038;27;20484;-70
2023/10/12 09:22:47;;;;;;;5.13;2.77;;;14.20;1.00;;;;;;5106571;27;20457;-70
2023/10/12 09:25:34;;;;;;;4.97;3.23;;;14.30;1.00;;;;;;5100613;27;21693;-68
2023/10/12 09:28:01;;;;;;;11.67;4.37;;;14.30;1.00;;;;;;5099327;27;20448;-69
2023/10/12 09:30:32;;;;;;;9.47;4.80;;;14.40;1.00;;;;;;5104877;27;20480;-69
2023/10/12 09:33:05;;;;;;;8.70;3.87;;;14.40;1.00;;;;;;5100743;27;20601;-70
2023/10/12 09:35:40;;;;;;;5.30;4.00;;;14.40;1.00;;;;;;5103652;27;23043;-72
2023/10/12 09:38:06;;;;;;;13.07;4.50;;;14.50;1.00;;;;;;5100614;27;20475;-69
2023/10/12 09:40:39;;;;;;;8.87;3.40;;;14.50;1.00;;;;;;5101676;27;20546;-69
2023/10/12 09:43:12;;;;;;;4.57;2.73;;;14.50;1.00;;;;;;5106281;27;20484;-67
2023/10/12 09:45:44;;;;;;;7.90;3.10;;;14.60;1.00;;;;;;5103444;27;20489;-68
2023/10/12 09:48:19;;;;;;;4.37;2.40;;;14.80;1.00;;;;;;5103219;27;20472;-72
2023/10/12 09:50:51;;;;;;;5.10;3.07;;;15.00;1.00;;;;;;5096132;27;20484;-72
2023/10/12 09:53:26;;;;;;;6.23;2.37;;;15.10;1.00;;;;;;5101086;27;20458;-68
2023/10/12 09:56:11;;;;;;;6.00;2.70;;;15.20;1.00;;;;;;5105873;27;21130;-68
2023/10/12 09:58:51;;;;;;;4.60;2.63;;;15.30;1.00;;;;;;5103872;27;21021;-69
2023/10/12 10:01:22;;;;;;;5.80;3.07;;;15.40;1.00;;;;;;5105665;27;20457;-68
2023/10/12 10:03:52;;;;;;;15.33;4.60;;;15.60;1.00;;;;;;5101310;27;20454;-71
2023/10/12 10:06:29;;;;;;;7.60;3.60;;;15.60;1.00;;;;;;5101768;27;20445;-68
2023/10/12 10:11:57;;;;;;;9.53;2.80;;;15.60;1.00;;;;;;5096815;27;20462;-68
2023/10/12 10:14:26;;;;;;;8.77;3.37;;;15.60;1.00;;;;;;5130698;27;20438;-71
2023/10/12 10:16:59;;;;;;;8.60;2.80;;;15.60;1.00;;;;;;5104879;27;20543;-69
2023/10/12 10:19:29;;;;;;;9.27;2.77;;;15.70;1.00;;;;;;5100747;27;20529;-70
2023/10/12 10:22:05;;;;;;;9.30;4.53;;;15.70;1.00;;;;;;5105624;27;22880;-69
2023/10/12 10:24:45;;;;;;;7.27;2.70;;;15.90;1.00;;;;;;5101913;27;20549;-69
2023/10/12 10:27:15;;;;;;;11.77;5.90;;;16.00;1.00;;;;;;5104023;27;20464;-72
2023/10/12 10:29:52;;;;;;;10.70;3.50;;;16.20;1.00;;;;;;5102388;27;20957;-69
2023/10/12 10:32:24;;;;;;;8.00;3.73;;;16.50;1.00;;;;;;5101915;27;20531;-72
2023/10/12 10:34:56;;;;;;;5.40;2.30;;;16.60;1.00;;;;;;5102115;27;20914;-68
2023/10/12 10:37:57;;;;;;;13.80;3.57;;;16.80;1.00;;;;;;5103274;27;20469;-69
2023/10/12 10:40:39;;;;;;;10.33;2.87;;;16.90;1.00;;;;;;5102035;27;20802;-70
2023/10/12 10:43:14;;;;;;;7.33;2.37;;;16.90;1.00;;;;;;5102200;27;21147;-69
2023/10/12 10:45:42;;;;;;;6.07;2.53;;;16.80;1.00;;;;;;5102998;27;20889;-69
2023/10/12 10:48:13;;;;;;;4.93;2.27;;;16.70;1.00;;;;;;5102625;27;20482;-70
2023/10/12 10:50:49;;;;;;;9.20;3.07;;;16.60;1.00;;;;;;5101913;27;20513;-70
2023/10/12 10:53:16;;;;;;;8.70;2.50;;;16.60;1.00;;;;;;5099957;27;20502;-69
2023/10/12 10:55:47;;;;;;;10.67;3.43;;;16.50;1.00;;;;;;5105224;27;20454;-71
2023/10/12 10:58:17;;;;;;;4.60;2.57;;;16.50;1.00;;;;;;5103660;27;20473;-69
2023/10/12 11:00:46;;;;;;;9.30;3.20;;;16.50;1.00;;;;;;5102334;27;20467;-71
2023/10/12 11:03:16;;;;;;;6.30;2.63;;;16.50;1.00;;;;;;5101280;27;20931;-70
2023/10/12 11:05:45;;;;;;;9.70;2.80;;;16.50;1.00;;;;;;5101082;27;20649;-69
2023/10/12 11:08:19;;;;;;;6.00;2.67;;;16.60;1.00;;;;;;5102709;27;20948;-72
2023/10/12 11:13:39;;;;;;;6.37;2.77;;;16.70;1.00;;;;;;5083050;27;20996;-69
2023/10/12 11:16:20;;;;;;;9.13;3.00;;;16.90;1.00;;;;;;5100375;27;20474;-72
2023/10/12 11:18:48;;;;;;;8.33;2.80;;;17.00;1.00;;;;;;5099731;27;20969;-70
2023/10/12 11:21:16;;;;;;;9.50;3.27;;;17.20;1.00;;;;;;5100942;27;20568;-70
2023/10/12 11:23:44;;;;;;;10.20;3.20;;;17.30;1.00;;;;;;5102574;27;20454;-69
2023/10/12 11:26:17;;;;;;;17.17;4.50;;;17.30;1.00;;;;;;5100352;27;20476;-73
2023/10/12 11:28:48;;;;;;;8.80;2.90;;;17.30;1.00;;;;;;5102238;27;21058;-72
2023/10/12 11:31:20;;;;;;;8.97;3.07;;;17.40;1.00;;;;;;5103624;27;20590;-74
2023/10/12 11:33:50;;;;;;;6.50;2.83;;;17.60;1.00;;;;;;5102605;27;20478;-69
2023/10/12 11:36:23;;;;;;;10.57;3.30;;;17.60;1.00;;;;;;5100665;27;20524;-71
2023/10/12 11:38:59;;;;;;;7.97;2.70;;;17.60;1.00;;;;;;5102665;27;20481;-69
2023/10/12 11:41:27;;;;;;;7.00;3.30;;;17.80;1.00;;;;;;5089445;27;20460;-71
2023/10/12 11:43:57;;;;;;;8.10;3.63;;;17.80;1.00;;;;;;5101109;27;20491;-71
2023/10/12 11:46:26;;;;;;;11.83;3.80;;;17.70;1.00;;;;;;5101161;27;20495;-72
2023/10/12 11:49:04;;;;;;;6.57;1.93;;;17.60;1.00;;;;;;5102979;27;20970;-68
2023/10/12 11:51:31;;;;;;;10.87;3.13;;;17.50;1.00;;;;;;5099363;27;20978;-70
2023/10/12 11:53:58;;;;;;;13.03;3.57;;;17.60;1.00;;;;;;5099665;27;20482;-72
2023/10/12 11:56:26;;;;;;;7.00;2.90;;;17.60;1.00;;;;;;5101877;27;20919;-74
2023/10/12 11:58:55;;;;;;;5.43;2.40;;;17.60;1.00;;;;;;5096324;27;20480;-70
2023/10/12 12:01:27;;;;;;;7.53;2.90;;;17.50;1.00;;;;;;5102971;27;20470;-72
2023/10/12 12:03:54;;;;;;;10.10;3.60;;;17.50;1.00;;;;;;5103500;27;20502;-70
2023/10/12 12:06:22;;;;;;;7.23;2.63;;;17.50;1.00;;;;;;5100874;27;20521;-69
2023/10/12 12:08:50;;;;;;;6.07;3.57;;;17.50;1.00;;;;;;5098651;27;20458;-67
2023/10/12 12:11:19;;;;;;;7.63;3.00;;;17.60;1.00;;;;;;5093047;27;20465;-71
2023/10/12 12:13:51;;;;;;;5.77;2.87;;;17.60;1.00;;;;;;5105617;27;20994;-68
2023/10/12 12:16:21;;;;;;;8.87;2.50;;;17.60;1.00;;;;;;5100371;27;20446;-68
2023/10/12 12:18:51;;;;;;;8.93;2.87;;;17.70;1.00;;;;;;5104851;27;20478;-68
2023/10/12 12:21:29;;;;;;;11.30;3.07;;;17.70;1.00;;;;;;5104023;27;20449;-69
2023/10/12 12:23:56;;;;;;;11.80;3.70;;;17.80;1.00;;;;;;5108234;27;21031;-71
2023/10/12 12:26:24;;;;;;;7.60;2.70;;;18.00;1.00;;;;;;5104164;27;20486;-70
2023/10/12 12:29:03;;;;;;;8.10;3.50;;;18.10;1.00;;;;;;5108438;27;20636;-68
2023/10/12 12:31:32;;;;;;;8.43;4.33;;;18.30;1.00;;;;;;5099599;27;20454;-69
2023/10/12 12:34:06;;;;;;;5.70;3.27;;;18.30;1.00;;;;;;5107246;27;20547;-71
2023/10/12 12:36:33;;;;;;;9.57;2.60;;;18.40;1.00;;;;;;5105466;27;20966;-71
2023/10/12 12:39:00;;;;;;;10.33;2.77;;;18.50;1.00;;;;;;5105913;27;20480;-72
2023/10/12 12:41:30;;;;;;;6.10;2.80;;;18.70;1.00;;;;;;5105586;27;20463;-74
2023/10/12 12:43:58;;;;;;;6.33;3.37;;;18.70;1.00;;;;;;5097896;27;20492;-73
2023/10/12 12:46:26;;;;;;;6.27;3.10;;;18.80;1.00;;;;;;5097862;27;20457;-74
2023/10/12 12:48:53;;;;;;;7.70;3.33;;;18.90;1.00;;;;;;5104779;27;21032;-73
2023/10/12 12:51:22;;;;;;;12.60;3.87;;;19.00;1.00;;;;;;5105091;27;20957;-73
2023/10/12 12:53:52;;;;;;;7.17;3.60;;;19.10;1.00;;;;;;5103300;27;20593;-73
2023/10/12 12:56:21;;;;;;;6.13;3.13;;;19.10;1.00;;;;;;5102266;27;20457;-73
2023/10/12 12:58:51;;;;;;;9.07;3.30;;;19.10;1.00;;;;;;5106629;27;20553;-73
2023/10/12 13:01:23;;;;;;;7.60;3.73;;;19.10;1.00;;;;;;5108972;27;20468;-71
2023/10/12 13:03:52;;;;;;;8.37;3.07;;;19.30;1.00;;;;;;5108711;27;20480;-72
2023/10/12 13:06:19;;;;;;;9.00;3.80;;;19.50;1.00;;;;;;5109321;27;20552;-73
2023/10/12 13:08:47;;;;;;;8.63;3.93;;;19.70;1.00;;;;;;5112149;27;20916;-71
2023/10/12 13:11:18;;;;;;;8.00;3.10;;;19.70;1.00;;;;;;5111192;27;20509;-72
2023/10/12 13:13:45;;;;;;;12.13;3.50;;;19.80;1.00;;;;;;5104353;27;20465;-72
2023/10/12 13:16:15;;;;;;;9.47;3.60;;;19.70;1.00;;;;;;5108950;27;20453;-72
2023/10/12 13:18:46;;;;;;;10.13;3.87;;;19.70;1.00;;;;;;5105575;27;20452;-73
2023/10/12 13:21:14;;;;;;;10.03;3.67;;;19.70;1.00;;;;;;5111483;27;20868;-73
2023/10/12 13:23:42;;;;;;;7.20;4.17;;;19.60;1.00;;;;;;5106047;27;20474;-72
2023/10/12 13:26:12;;;;;;;9.30;3.40;;;19.50;1.00;;;;;;5109760;27;20891;-72
2023/10/12 13:28:41;;;;;;;7.63;3.37;;;19.40;1.00;;;;;;5107756;27;20464;-72
2023/10/12 13:31:10;;;;;;;5.47;3.57;;;19.10;1.00;;;;;;5105312;27;21319;-71
2023/10/12 13:33:41;;;;;;;7.97;2.80;;;19.20;1.00;;;;;;5105902;27;21030;-71
2023/10/12 13:36:09;;;;;;;7.80;3.60;;;19.40;1.00;;;;;;5112120;27;20908;-72
2023/10/12 13:38:37;;;;;;;5.73;3.13;;;19.60;1.00;;;;;;5104650;27;20548;-72
2023/10/12 13:41:05;;;;;;;7.27;3.00;;;19.60;1.00;;;;;;5108374;27;20456;-72
2023/10/12 13:43:34;;;;;;;9.50;4.07;;;19.60;1.00;;;;;;5108071;27;20484;-71
2023/10/12 13:46:07;;;;;;;8.70;2.97;;;19.60;1.00;;;;;;5106632;27;20954;-71
2023/10/12 13:48:37;;;;;;;2.90;2.27;;;19.70;1.00;;;;;;5108408;27;20496;-71
2023/10/12 13:51:08;;;;;;;8.40;3.50;;;19.50;1.00;;;;;;5102759;27;20456;-71
2023/10/12 13:53:37;;;;;;;10.30;7.67;;;19.40;1.00;;;;;;5108078;27;20463;-71
2023/10/12 13:56:06;;;;;;;6.73;2.63;;;19.10;1.00;;;;;;5106628;27;20457;-72